Time;durP1;ratioP1;P1;durP2;ratioP2;P2;SDS_P1;SDS_P2;PMS_P1;PMS_P2;Temp;Humidity;BMP_temperature;BMP_pressure;BME280_temperature;BME280_humidity;BME280_pressure;Samples;Min_cycle;Max_cycle;Signal;HPM_P1;HPM_P2
2024/01/15 00:04:57;;;;;;;32.60;15.07;;;;;;;-0.66;100.00;98790.47;10446365;28;20045;-80
2024/01/15 00:10:00;;;;;;;29.50;14.23;;;;;;;-0.62;100.00;98785.88;10465655;28;20052;-81
2024/01/15 00:15:05;;;;;;;29.63;13.40;;;;;;;-0.60;100.00;98789.28;10461670;28;21228;-79
2024/01/15 00:20:09;;;;;;;28.73;13.02;;;;;;;-0.73;100.00;98782.09;10453869;28;20048;-78
2024/01/15 00:25:12;;;;;;;27.75;14.80;;;;;;;-0.72;100.00;98782.94;10458035;28;20067;-79
2024/01/15 00:30:16;;;;;;;25.38;12.80;;;;;;;-0.85;100.00;98788.13;10445597;28;20045;-79
2024/01/15 00:35:20;;;;;;;29.02;14.45;;;;;;;-0.90;100.00;98777.00;10456422;28;20068;-80
2024/01/15 00:40:23;;;;;;;32.50;12.38;;;;;;;-0.52;100.00;98763.28;10458598;28;20095;-79
2024/01/15 00:45:27;;;;;;;31.30;12.88;;;;;;;-0.71;100.00;98771.47;10460487;28;20060;-80
2024/01/15 00:50:30;;;;;;;32.70;13.73;;;;;;;-0.58;100.00;98763.66;10468682;28;21043;-81
2024/01/15 00:55:34;;;;;;;21.83;9.00;;;;;;;-0.80;100.00;98778.13;10457621;28;20051;-80
2024/01/15 01:00:38;;;;;;;30.98;14.25;;;;;;;-0.64;100.00;98740.28;10463763;28;20091;-80
2024/01/15 01:05:41;;;;;;;14.77;6.50;;;;;;;-0.67;100.00;98761.56;10458738;28;20056;-79
2024/01/15 01:10:44;;;;;;;19.45;7.70;;;;;;;-0.76;100.00;98765.63;10460838;28;20615;-81
2024/01/15 01:15:48;;;;;;;12.65;5.45;;;;;;;-0.83;100.00;98753.72;10460016;28;20055;-81
2024/01/15 01:20:52;;;;;;;17.27;7.57;;;;;;;-0.46;100.00;98760.28;10458284;28;20045;-81
2024/01/15 01:25:55;;;;;;;20.40;9.00;;;;;;;-0.36;100.00;98757.91;10462563;28;20059;-81
2024/01/15 01:30:59;;;;;;;28.73;8.88;;;;;;;-0.22;100.00;98759.69;10456853;28;20059;-79
2024/01/15 01:36:07;;;;;;;17.55;7.55;;;;;;;-0.28;100.00;98748.56;10460817;28;20443;-80
2024/01/15 01:41:10;;;;;;;17.45;7.82;;;;;;;-0.56;100.00;98756.50;10455059;28;20060;-81
2024/01/15 01:46:15;;;;;;;11.98;5.93;;;;;;;-0.58;100.00;98764.47;10468399;28;20044;-81
2024/01/15 01:51:18;;;;;;;12.77;4.95;;;;;;;-0.46;100.00;98741.81;10466066;28;21225;-80
2024/01/15 01:56:22;;;;;;;13.52;5.53;;;;;;;-0.53;100.00;98727.28;10453065;28;20067;-79
2024/01/15 02:01:26;;;;;;;10.43;5.25;;;;;;;-0.63;100.00;98731.44;10449692;28;20041;-81
2024/01/15 02:06:30;;;;;;;12.27;5.15;;;;;;;-0.62;100.00;98720.78;10456499;28;20048;-80
2024/01/15 02:11:33;;;;;;;20.15;6.28;;;;;;;-0.31;100.00;98711.81;10454589;28;20052;-80
2024/01/15 02:16:37;;;;;;;6.90;3.80;;;;;;;-0.56;100.00;98703.75;10468162;28;20692;-79
2024/01/15 02:21:40;;;;;;;15.90;5.85;;;;;;;-0.62;100.00;98722.59;10460316;28;20048;-80
2024/01/15 02:26:45;;;;;;;16.17;5.93;;;;;;;-0.50;100.00;98725.31;10469909;28;20048;-81
2024/01/15 02:31:48;;;;;;;10.60;3.75;;;;;;;-0.69;100.00;98721.25;10454035;28;20044;-81
2024/01/15 02:36:51;;;;;;;13.75;3.88;;;;;;;-0.31;100.00;98737.34;10467144;28;20056;-81
2024/01/15 02:41:57;;;;;;;20.10;5.20;;;;;;;-0.60;100.00;98718.06;10448588;28;20612;-81
2024/01/15 02:47:00;;;;;;;13.77;4.35;;;;;;;-0.64;100.00;98720.03;10458636;28;20064;-81
2024/01/15 02:52:04;;;;;;;12.43;5.07;;;;;;;-0.51;100.00;98728.91;10458326;28;20052;-82
2024/01/15 02:57:08;;;;;;;16.60;6.43;;;;;;;-0.61;100.00;98724.28;10466718;28;20052;-79
2024/01/15 03:02:11;;;;;;;9.07;3.88;;;;;;;-0.86;100.00;98717.84;10466429;28;20412;-79
2024/01/15 03:07:14;;;;;;;11.30;3.97;;;;;;;-0.64;100.00;98729.75;10463342;28;20126;-79
2024/01/15 03:12:19;;;;;;;14.45;5.00;;;;;;;-0.54;100.00;98737.00;10463522;28;21174;-79
2024/01/15 03:17:22;;;;;;;17.17;6.68;;;;;;;-0.67;100.00;98719.38;10460074;28;20040;-81
2024/01/15 03:22:25;;;;;;;15.65;5.85;;;;;;;-0.49;100.00;98720.91;10470423;28;20159;-80
2024/01/15 03:27:30;;;;;;;12.13;6.10;;;;;;;-0.77;100.00;98706.78;10475371;28;20048;-79
2024/01/15 03:32:33;;;;;;;10.80;4.88;;;;;;;-0.81;100.00;98713.16;10472153;28;20699;-81
2024/01/15 03:37:36;;;;;;;10.38;4.20;;;;;;;-0.70;100.00;98723.06;10483433;28;20055;-80
2024/01/15 03:42:41;;;;;;;17.45;7.05;;;;;;;-0.89;100.00;98719.84;10481127;28;20080;-81
2024/01/15 03:47:44;;;;;;;20.05;7.43;;;;;;;-0.55;100.00;98705.44;10471625;28;20062;-81
2024/01/15 03:52:47;;;;;;;21.52;7.97;;;;;;;-0.58;100.00;98729.34;10464201;28;20056;-81
2024/01/15 03:57:51;;;;;;;23.52;8.60;;;;;;;-0.64;100.00;98714.75;10459762;28;20059;-82
2024/01/15 04:02:54;;;;;;;12.38;5.93;;;;;;;-0.36;100.00;98726.25;10493468;28;20056;-81
2024/01/15 04:07:57;;;;;;;20.90;8.77;;;;;;;-0.33;100.00;98726.91;10479802;28;20056;-81
2024/01/15 04:13:03;;;;;;;16.50;5.10;;;;;;;-0.33;100.00;98741.88;10462466;28;20048;-81
2024/01/15 04:18:06;;;;;;;16.92;6.38;;;;;;;-0.22;100.00;98728.00;10476401;28;20048;-81
2024/01/15 04:23:09;;;;;;;17.17;5.38;;;;;;;-0.62;100.00;98710.25;10461007;28;20168;-81
2024/01/15 04:28:14;;;;;;;12.48;4.88;;;;;;;-0.38;100.00;98696.50;10454314;28;20118;-81
2024/01/15 04:33:17;;;;;;;10.45;4.80;;;;;;;-0.40;100.00;98693.94;10476796;28;20044;-81
2024/01/15 04:38:20;;;;;;;14.95;4.90;;;;;;;-0.41;100.00;98697.53;10469525;28;21745;-81
2024/01/15 04:43:24;;;;;;;19.48;5.25;;;;;;;-0.34;100.00;98708.53;10481943;28;20051;-81
2024/01/15 04:48:27;;;;;;;9.70;3.40;;;;;;;-0.46;100.00;98704.88;10465815;28;20230;-81
2024/01/15 04:53:30;;;;;;;15.82;5.50;;;;;;;-0.43;100.00;98699.41;10455209;28;20126;-82
2024/01/15 04:58:35;;;;;;;11.65;3.83;;;;;;;-0.36;100.00;98690.16;10479987;28;20058;-81
2024/01/15 05:03:39;;;;;;;11.38;4.43;;;;;;;-0.60;100.00;98684.63;10465471;28;21185;-81
2024/01/15 05:08:42;;;;;;;15.52;5.93;;;;;;;-0.41;100.00;98686.97;10456931;28;20056;-81
2024/01/15 05:13:46;;;;;;;16.52;5.95;;;;;;;-0.53;100.00;98674.53;10463658;28;20059;-80
2024/01/15 05:18:49;;;;;;;16.83;5.15;;;;;;;-0.24;100.00;98687.69;10468371;28;20067;-81
2024/01/15 05:23:52;;;;;;;13.68;5.38;;;;;;;-0.43;100.00;98672.19;10465183;28;20048;-79
2024/01/15 05:28:57;;;;;;;11.38;4.95;;;;;;;-0.32;100.00;98675.00;10460577;28;20509;-80
2024/01/15 05:34:00;;;;;;;11.25;5.13;;;;;;;-0.64;100.00;98677.00;10459333;28;20068;-80
2024/01/15 05:39:03;;;;;;;16.20;5.60;;;;;;;-0.67;100.00;98677.19;10482087;28;20040;-81
2024/01/15 05:44:08;;;;;;;11.50;4.55;;;;;;;-0.25;100.00;98685.97;10475026;28;20193;-80
2024/01/15 05:49:11;;;;;;;19.38;6.75;;;;;;;-0.45;100.00;98661.72;10464183;28;20139;-80
2024/01/15 05:54:14;;;;;;;6.22;3.42;;;;;;;-0.64;100.00;98682.28;10482307;28;20048;-80
2024/01/15 05:59:18;;;;;;;13.20;4.25;;;;;;;-0.50;100.00;98674.34;10475023;28;20047;-81
2024/01/15 06:04:21;;;;;;;11.52;4.60;;;;;;;-0.60;100.00;98678.53;10467196;28;20047;-80
2024/01/15 06:09:25;;;;;;;8.82;4.75;;;;;;;-0.59;100.00;98653.81;10467793;28;20443;-81
2024/01/15 06:14:29;;;;;;;12.60;4.30;;;;;;;-0.37;100.00;98675.28;10482366;28;20484;-80
2024/01/15 06:19:32;;;;;;;10.65;4.88;;;;;;;-0.63;100.00;98673.41;10478239;28;21144;-81
2024/01/15 06:24:35;;;;;;;9.60;5.03;;;;;;;-0.68;100.00;98680.78;10470626;28;20056;-81
2024/01/15 06:29:40;;;;;;;9.45;4.00;;;;;;;-0.36;100.00;98684.03;10479862;28;20103;-81
2024/01/15 06:34:42;;;;;;;20.20;4.45;;;;;;;-0.76;100.00;98674.19;10457933;28;20045;-81
2024/01/15 06:39:46;;;;;;;6.43;3.25;;;;;;;-0.46;100.00;98682.94;10483196;28;20547;-81
2024/01/15 06:44:50;;;;;;;13.32;6.28;;;;;;;-0.78;100.00;98683.97;10477593;28;20195;-81
2024/01/15 06:49:53;;;;;;;11.23;4.97;;;;;;;-0.50;100.00;98692.81;10457394;28;20052;-81
2024/01/15 06:54:56;;;;;;;9.18;5.30;;;;;;;-0.88;100.00;98677.56;10462148;28;20063;-79
2024/01/15 07:00:01;;;;;;;8.75;4.35;;;;;;;-0.79;100.00;98682.28;10462925;28;20074;-79
2024/01/15 07:05:05;;;;;;;9.70;5.28;;;;;;;-0.10;100.00;98693.78;10464130;28;20055;-81
2024/01/15 07:10:09;;;;;;;12.65;6.35;;;;;;;-0.47;100.00;98703.16;10483782;28;20182;-80
2024/01/15 07:15:13;;;;;;;11.57;6.20;;;;;;;-0.51;100.00;98696.41;10466422;28;20044;-79
2024/01/15 07:20:19;;;;;;;11.48;4.07;;;;;;;-0.73;100.00;98700.34;10475758;28;20064;-80
2024/01/15 07:25:22;;;;;;;9.30;5.00;;;;;;;-0.48;100.00;98696.19;10472923;28;20051;-80
2024/01/15 07:30:26;;;;;;;12.57;6.25;;;;;;;-0.30;100.00;98705.63;10474039;28;20063;-80
2024/01/15 07:35:29;;;;;;;12.23;4.60;;;;;;;-0.67;100.00;98691.22;10474928;28;20133;-80
2024/01/15 07:40:32;;;;;;;10.43;4.45;;;;;;;-0.75;100.00;98691.69;10473865;28;20044;-80
2024/01/15 07:45:37;;;;;;;16.40;6.22;;;;;;;-0.39;100.00;98695.63;10459151;28;20608;-81
2024/01/15 07:50:39;;;;;;;10.50;5.63;;;;;;;-0.42;100.00;98700.25;10484437;28;20047;-82
2024/01/15 07:55:43;;;;;;;19.52;6.50;;;;;;;-0.29;100.00;98712.56;10468822;28;20048;-81
2024/01/15 08:00:47;;;;;;;18.85;6.88;;;;;;;-0.39;100.00;98710.59;10473436;28;20055;-81
2024/01/15 08:05:52;;;;;;;14.02;4.88;;;;;;;-0.77;100.00;98709.41;10473825;28;20044;-82
2024/01/15 08:10:55;;;;;;;8.05;5.30;;;;;;;-0.35;100.00;98710.31;10484476;28;20044;-80
2024/01/15 08:16:00;;;;;;;12.98;6.32;;;;;;;-0.46;100.00;98706.66;10478109;28;20059;-80
2024/01/15 08:21:03;;;;;;;11.95;4.65;;;;;;;-0.57;100.00;98712.59;10479027;28;20052;-80
2024/01/15 08:26:06;;;;;;;11.88;5.70;;;;;;;-0.26;100.00;98708.06;10496049;28;20033;-82
2024/01/15 08:31:10;;;;;;;11.02;4.80;;;;;;;-0.53;100.00;98708.81;10489609;28;20051;-81
2024/01/15 08:36:13;;;;;;;8.98;4.50;;;;;;;-0.23;100.00;98703.41;10491669;28;20064;-80
2024/01/15 08:41:16;;;;;;;7.63;5.35;;;;;;;-0.57;100.00;98702.06;10498448;28;20075;-81
2024/01/15 08:46:21;;;;;;;7.20;4.50;;;;;;;-0.61;100.00;98708.44;10477338;28;20053;-81
2024/01/15 08:51:24;;;;;;;3.05;2.75;;;;;;;-0.82;100.00;98703.56;10480070;28;20032;-79
2024/01/15 08:56:27;;;;;;;4.47;4.05;;;;;;;-0.33;100.00;98692.63;10492501;28;20048;-80
2024/01/15 09:01:34;;;;;;;7.60;4.15;;;;;;;-0.52;100.00;98707.91;10490495;28;20063;-80
2024/01/15 09:06:41;;;;;;;6.50;4.53;;;;;;;-1.03;100.00;98696.94;10481823;28;20040;-80
2024/01/15 09:11:46;;;;;;;5.47;3.22;;;;;;;-0.66;100.00;98711.34;10495995;28;20045;-81
2024/01/15 09:16:50;;;;;;;8.30;3.65;;;;;;;-1.08;100.00;98706.91;10480548;28;20063;-79
2024/01/15 09:21:53;;;;;;;6.03;4.57;;;;;;;-1.22;100.00;98702.47;10491718;28;20063;-80
2024/01/15 09:26:56;;;;;;;7.78;4.15;;;;;;;-0.93;100.00;98716.56;10491137;28;20053;-80
2024/01/15 09:32:02;;;;;;;8.57;4.68;;;;;;;-1.07;100.00;98708.59;10497271;28;20051;-80
2024/01/15 09:37:06;;;;;;;3.92;2.33;;;;;;;-0.84;100.00;98699.31;10486729;28;20052;-80
2024/01/15 09:42:10;;;;;;;7.82;4.22;;;;;;;-1.36;100.00;98715.63;10488157;28;21836;-80
2024/01/15 09:47:17;;;;;;;10.80;6.25;;;;;;;-1.05;100.00;98699.66;10486418;28;20052;-80
2024/01/15 09:52:20;;;;;;;9.93;6.55;;;;;;;-0.63;100.00;98705.06;10489627;28;20059;-79
2024/01/15 09:57:23;;;;;;;9.85;5.05;;;;;;;-0.22;100.00;98697.22;10493540;28;20048;-80
2024/01/15 10:02:27;;;;;;;10.32;5.50;;;;;;;-0.69;100.00;98695.72;10482828;28;20083;-81
2024/01/15 10:07:34;;;;;;;14.13;5.80;;;;;;;-0.38;100.00;98699.13;10476005;28;20056;-81
2024/01/15 10:12:37;;;;;;;6.32;4.28;;;;;;;-0.65;100.00;98691.97;10479560;28;20032;-80
2024/01/15 10:17:42;;;;;;;9.25;4.20;;;;;;;-0.63;100.00;98687.47;10476595;28;20053;-81
2024/01/15 10:22:47;;;;;;;12.65;4.00;;;;;;;-0.54;100.00;98707.97;10493473;28;20438;-81
2024/01/15 10:28:00;;;;;;;11.35;5.13;;;;;;;-0.46;100.00;98704.03;10464718;28;20037;-80
2024/01/15 10:33:05;;;;;;;12.48;3.85;;;;;;;-0.24;100.00;98699.09;10502192;28;20056;-80
2024/01/15 10:38:09;;;;;;;10.60;4.78;;;;;;;-0.25;100.00;98684.19;10495428;28;20166;-80
2024/01/15 10:43:12;;;;;;;9.60;5.00;;;;;;;-0.35;100.00;98680.47;10492226;28;20056;-79
2024/01/15 10:48:19;;;;;;;12.20;3.80;;;;;;;-0.28;100.00;98664.13;10489607;28;20151;-81
2024/01/15 10:53:22;;;;;;;11.23;3.50;;;;;;;0.54;100.00;98675.50;10486415;28;20045;-80
2024/01/15 10:58:31;;;;;;;9.50;2.33;;;;;;;0.15;100.00;98677.19;10498961;28;20072;-82
2024/01/15 11:03:36;;;;;;;6.25;2.72;;;;;;;0.33;100.00;98674.28;10487427;28;20037;-78
2024/01/15 11:08:41;;;;;;;6.97;2.90;;;;;;;-0.00;100.00;98679.97;10491357;28;20044;-81
2024/01/15 11:13:49;;;;;;;13.82;3.17;;;;;;;0.08;100.00;98673.28;10494823;28;20052;-81
2024/01/15 11:19:08;;;;;;;10.75;3.30;;;;;;;0.09;100.00;98682.03;10498680;28;20059;-81
2024/01/15 11:24:12;;;;;;;9.13;4.32;;;;;;;-0.22;100.00;98672.59;10484549;28;20052;-80
2024/01/15 11:29:31;;;;;;;8.90;2.83;;;;;;;0.16;100.00;98672.75;10493139;28;20048;-79
2024/01/15 11:34:57;;;;;;;8.38;2.55;;;;;;;-0.06;100.00;98678.59;10490766;28;20056;-81
2024/01/15 11:40:04;;;;;;;10.02;2.28;;;;;;;0.03;100.00;98672.72;10481910;28;20044;-78
2024/01/15 11:45:08;;;;;;;10.07;2.65;;;;;;;0.02;100.00;98663.09;10488761;28;20108;-78
2024/01/15 11:50:12;;;;;;;9.00;2.08;;;;;;;0.36;100.00;98674.13;10485460;28;20151;-79
2024/01/15 11:55:20;;;;;;;9.77;2.67;;;;;;;0.17;100.00;98680.59;10492189;28;20067;-79
2024/01/15 12:00:24;;;;;;;7.72;2.97;;;;;;;0.05;100.00;98665.53;10490362;28;20055;-80
2024/01/15 12:05:28;;;;;;;10.93;1.73;;;;;;;0.02;100.00;98667.53;10471039;28;20049;-79
2024/01/15 12:10:31;;;;;;;4.40;1.63;;;;;;;0.12;100.00;98671.28;10481469;28;21291;-79
2024/01/15 12:15:34;;;;;;;6.22;2.42;;;;;;;0.28;100.00;98666.69;10483020;28;20039;-79
2024/01/15 12:20:40;;;;;;;10.10;3.22;;;;;;;0.23;100.00;98660.03;10503586;28;20040;-80
2024/01/15 12:25:44;;;;;;;7.30;3.42;;;;;;;-0.31;100.00;98682.78;10485008;28;20047;-78
2024/01/15 12:30:50;;;;;;;5.00;2.47;;;;;;;0.13;100.00;98676.44;10476452;28;20052;-79
2024/01/15 12:35:55;;;;;;;5.97;2.58;;;;;;;0.16;100.00;98667.47;10487051;28;20033;-78
2024/01/15 12:40:58;;;;;;;5.15;2.30;;;;;;;0.16;100.00;98665.72;10489059;28;20036;-79
2024/01/15 12:46:01;;;;;;;6.40;2.03;;;;;;;0.39;100.00;98672.09;10487104;28;20049;-79
2024/01/15 12:51:09;;;;;;;10.23;2.22;;;;;;;-0.40;100.00;98674.63;10493134;28;20053;-78
2024/01/15 12:56:12;;;;;;;5.63;2.40;;;;;;;0.20;100.00;98665.50;10489176;28;20437;-78
2024/01/15 13:01:15;;;;;;;9.02;3.00;;;;;;;0.27;100.00;98664.97;10467604;28;20051;-80
2024/01/15 13:06:19;;;;;;;4.57;1.98;;;;;;;-0.03;100.00;98675.75;10478841;28;20050;-80
2024/01/15 13:11:22;;;;;;;11.80;1.77;;;;;;;-0.44;100.00;98675.75;10504074;28;20041;-78
2024/01/15 13:16:26;;;;;;;7.80;2.25;;;;;;;0.20;100.00;98671.63;10521143;28;20051;-78
2024/01/15 13:21:31;;;;;;;9.85;3.00;;;;;;;0.94;100.00;98656.97;10539389;28;20058;-78
2024/01/15 13:26:34;;;;;;;5.32;1.75;;;;;;;0.48;100.00;98661.88;10540545;28;20142;-79
2024/01/15 13:31:38;;;;;;;2.75;1.88;;;;;;;0.41;100.00;98660.56;10542183;28;20047;-78
2024/01/15 13:36:42;;;;;;;2.10;1.02;;;;;;;-0.02;100.00;98669.53;10522063;28;20492;-78
2024/01/15 13:41:46;;;;;;;1.95;0.65;;;;;;;-0.05;100.00;98672.38;10526704;28;20879;-80
2024/01/15 13:46:49;;;;;;;7.00;2.20;;;;;;;0.10;100.00;98666.09;10532342;28;20052;-78
2024/01/15 13:51:53;;;;;;;6.78;2.13;;;;;;;0.06;100.00;98667.25;10537925;28;20073;-78
2024/01/15 13:56:56;;;;;;;4.43;1.83;;;;;;;-0.07;100.00;98676.91;10533457;28;20048;-78
2024/01/15 14:01:59;;;;;;;2.53;1.67;;;;;;;-0.08;100.00;98673.44;10527835;28;20051;-78
2024/01/15 14:07:04;;;;;;;5.55;2.63;;;;;;;-0.18;100.00;98661.75;10534427;28;20048;-79
2024/01/15 14:12:07;;;;;;;3.38;1.88;;;;;;;0.06;100.00;98671.69;10541159;28;20813;-80
2024/01/15 14:17:10;;;;;;;2.55;1.55;;;;;;;-0.27;100.00;98675.53;10551182;28;20044;-79
2024/01/15 14:22:15;;;;;;;3.10;1.85;;;;;;;-0.15;100.00;98676.53;10541675;28;20981;-79
2024/01/15 14:27:18;;;;;;;7.63;2.53;;;;;;;-0.38;100.00;98692.06;10538850;28;20040;-78
2024/01/15 14:32:21;;;;;;;5.82;2.80;;;;;;;-0.59;100.00;98702.13;10541905;28;20040;-79
2024/01/15 14:37:25;;;;;;;4.05;1.92;;;;;;;-0.26;100.00;98713.34;10547482;28;20074;-81
2024/01/15 14:42:28;;;;;;;4.75;1.65;;;;;;;-0.66;100.00;98692.06;10547755;28;20066;-80
2024/01/15 14:47:32;;;;;;;6.57;2.13;;;;;;;-0.68;100.00;98700.09;10550013;28;20112;-80
2024/01/15 14:52:36;;;;;;;5.32;2.67;;;;;;;-0.44;100.00;98710.03;10539558;28;20098;-81
2024/01/15 14:57:39;;;;;;;4.82;2.70;;;;;;;-0.54;100.00;98717.69;10528597;28;20067;-81
2024/01/15 15:02:42;;;;;;;4.38;2.67;;;;;;;-0.69;100.00;98723.91;10541440;28;20048;-80
2024/01/15 15:07:47;;;;;;;4.55;2.33;;;;;;;-0.40;100.00;98741.41;10511689;28;20095;-79
2024/01/15 15:12:50;;;;;;;3.13;2.00;;;;;;;-0.81;100.00;98757.97;10520439;28;20047;-80
2024/01/15 15:17:53;;;;;;;6.20;1.67;;;;;;;-0.78;100.00;98770.13;10532771;28;20052;-79
2024/01/15 15:22:58;;;;;;;3.15;1.83;;;;;;;-0.30;100.00;98783.94;10536225;28;20047;-80
2024/01/15 15:28:01;;;;;;;2.05;1.42;;;;;;;-0.40;100.00;98783.63;10526393;28;20051;-79
2024/01/15 15:33:05;;;;;;;3.38;1.75;;;;;;;-0.45;100.00;98793.59;10523713;28;20044;-79
2024/01/15 15:38:09;;;;;;;7.45;2.00;;;;;;;-0.52;100.00;98805.50;10506439;28;20043;-81
2024/01/15 15:43:12;;;;;;;3.70;1.67;;;;;;;-0.13;100.00;98814.56;10526748;28;20066;-81
2024/01/15 15:48:15;;;;;;;1.35;1.05;;;;;;;0.03;100.00;98831.13;10527941;28;20046;-82
2024/01/15 15:53:21;;;;;;;9.82;2.13;;;;;;;-0.37;100.00;98838.00;10507966;28;20114;-80
2024/01/15 15:58:25;;;;;;;10.32;1.75;;;;;;;-0.22;100.00;98846.75;10486032;28;20104;-80
2024/01/15 16:03:28;;;;;;;6.65;1.48;;;;;;;-0.52;100.00;98845.91;10483334;28;20056;-78
2024/01/15 16:08:32;;;;;;;5.15;1.75;;;;;;;-0.46;100.00;98872.88;10458321;28;20559;-80
2024/01/15 16:13:35;;;;;;;6.68;1.40;;;;;;;-0.35;100.00;98873.06;10492978;28;20073;-80
2024/01/15 16:18:38;;;;;;;3.80;1.17;;;;;;;-0.88;100.00;98877.06;10502902;28;20052;-80
2024/01/15 16:24:02;;;;;;;2.85;1.23;;;;;;;-0.72;100.00;98868.16;10463269;28;20186;-80
2024/01/15 16:29:24;;;;;;;6.20;1.42;;;;;;;-0.78;100.00;98876.44;10452222;28;20098;-80
2024/01/15 16:34:27;;;;;;;7.78;1.25;;;;;;;-0.81;100.00;98897.72;10455329;28;20435;-81
2024/01/15 16:39:31;;;;;;;5.00;1.63;;;;;;;-0.80;100.00;98896.75;10505235;28;20183;-81
2024/01/15 16:44:34;;;;;;;6.13;1.83;;;;;;;-0.75;100.00;98907.06;10452211;28;20101;-82
2024/01/15 16:49:37;;;;;;;6.55;1.70;;;;;;;-0.64;100.00;98917.81;10443042;28;20056;-81
2024/01/15 16:54:42;;;;;;;9.05;2.08;;;;;;;-0.59;100.00;98933.41;10453632;28;20048;-81
2024/01/15 16:59:45;;;;;;;3.22;1.40;;;;;;;-0.89;100.00;98944.75;10482763;28;20074;-80
2024/01/15 17:04:48;;;;;;;10.18;1.70;;;;;;;-0.68;100.00;98941.84;10486520;28;20174;-79
2024/01/15 17:09:53;;;;;;;8.73;1.20;;;;;;;-0.63;100.00;98959.09;10477924;28;20052;-81
2024/01/15 17:14:56;;;;;;;5.07;1.55;;;;;;;-0.63;100.00;98948.56;10498049;28;20071;-80
2024/01/15 17:19:59;;;;;;;4.03;1.15;;;;;;;-0.49;100.00;98955.66;10489920;28;20045;-80
2024/01/15 17:25:05;;;;;;;6.22;2.28;;;;;;;-0.41;100.00;98966.63;10505677;28;21163;-81
2024/01/15 17:30:09;;;;;;;8.35;2.03;;;;;;;-0.74;100.00;98977.28;10487434;28;20115;-79
2024/01/15 17:35:12;;;;;;;4.43;2.30;;;;;;;-0.54;100.00;98979.66;10492955;28;20052;-79
2024/01/15 17:40:16;;;;;;;8.57;2.75;;;;;;;-0.44;100.00;98982.59;10496645;28;20068;-79
2024/01/15 17:45:19;;;;;;;3.88;2.47;;;;;;;-1.08;100.00;98987.09;10474693;28;20052;-80
2024/01/15 17:50:23;;;;;;;6.47;2.33;;;;;;;-0.48;100.00;98990.81;10479462;28;20040;-81
2024/01/15 17:55:28;;;;;;;6.47;1.90;;;;;;;-0.94;100.00;98981.06;10478440;28;20101;-80
2024/01/15 18:00:31;;;;;;;8.30;2.60;;;;;;;-0.58;100.00;98993.94;10501957;28;20108;-80
2024/01/15 18:05:35;;;;;;;8.93;2.30;;;;;;;-0.85;100.00;99000.78;10509193;28;20062;-78
2024/01/15 18:10:39;;;;;;;6.50;1.85;;;;;;;-0.66;100.00;99005.88;10494699;28;20100;-80
2024/01/15 18:15:42;;;;;;;14.52;2.53;;;;;;;-0.60;100.00;99002.91;10508110;28;20078;-79
2024/01/15 18:20:45;;;;;;;4.88;1.60;;;;;;;-1.07;100.00;99011.69;10499368;28;20040;-78
2024/01/15 18:25:50;;;;;;;8.63;2.15;;;;;;;-0.97;100.00;99018.16;10529272;28;20041;-80
2024/01/15 18:30:53;;;;;;;10.90;3.28;;;;;;;-1.05;100.00;99017.72;10503886;28;20044;-80
2024/01/15 18:35:57;;;;;;;7.32;2.30;;;;;;;-1.10;100.00;99011.84;10500037;28;20052;-80
2024/01/15 18:41:03;;;;;;;10.85;2.70;;;;;;;-1.30;100.00;99021.69;10488171;28;21166;-79
2024/01/15 18:46:08;;;;;;;18.95;2.65;;;;;;;-0.83;100.00;99036.69;10495940;28;20048;-80
2024/01/15 18:51:20;;;;;;;6.47;2.60;;;;;;;-0.88;100.00;99049.25;10487459;28;20760;-81
2024/01/15 18:56:24;;;;;;;5.03;2.58;;;;;;;-0.81;100.00;99044.53;10506570;28;20052;-80
2024/01/15 19:01:29;;;;;;;10.75;3.17;;;;;;;-0.68;100.00;99050.81;10483436;28;20053;-81
2024/01/15 19:06:32;;;;;;;15.68;3.30;;;;;;;-0.73;100.00;99055.50;10481082;28;20056;-80
2024/01/15 19:11:36;;;;;;;6.05;1.85;;;;;;;-1.01;100.00;99070.19;10478420;28;20057;-79
2024/01/15 19:16:39;;;;;;;18.80;3.70;;;;;;;-0.57;100.00;99079.22;10476565;28;20870;-80
2024/01/15 19:21:43;;;;;;;16.90;2.97;;;;;;;-1.00;100.00;99086.84;10507025;28;20041;-79
2024/01/15 19:26:48;;;;;;;7.63;2.95;;;;;;;-1.13;100.00;99089.28;10534228;28;20109;-79
2024/01/15 19:31:51;;;;;;;2.50;1.88;;;;;;;-1.10;100.00;99088.28;10531025;28;20084;-78
2024/01/15 19:36:55;;;;;;;2.42;1.73;;;;;;;-0.87;100.00;99090.53;10536093;28;20048;-80
2024/01/15 19:41:59;;;;;;;8.23;2.03;;;;;;;-0.89;100.00;99095.03;10492427;28;20057;-79
2024/01/15 19:47:02;;;;;;;3.65;1.92;;;;;;;-0.65;100.00;99121.84;10499289;28;20602;-78
2024/01/15 19:52:05;;;;;;;7.65;2.92;;;;;;;-1.00;100.00;99115.84;10506303;28;20036;-78
2024/01/15 19:57:10;;;;;;;10.55;3.17;;;;;;;-0.70;100.00;99123.88;10514565;28;20046;-80
2024/01/15 20:02:13;;;;;;;6.20;3.08;;;;;;;-0.86;100.00;99137.03;10533002;28;20032;-80
2024/01/15 20:07:16;;;;;;;5.28;2.92;;;;;;;-0.40;100.00;99131.03;10539451;28;20072;-80
2024/01/15 20:12:22;;;;;;;5.72;2.40;;;;;;;-0.53;100.00;99144.91;10537766;28;20142;-79
2024/01/15 20:17:25;;;;;;;6.70;2.92;;;;;;;-0.78;100.00;99139.28;10534482;28;21257;-81
2024/01/15 20:22:28;;;;;;;4.20;2.08;;;;;;;-0.39;100.00;99167.88;10520256;28;20066;-80
2024/01/15 20:27:37;;;;;;;4.05;2.17;;;;;;;-0.57;100.00;99168.91;10536142;28;20052;-78
2024/01/15 20:32:40;;;;;;;6.97;2.53;;;;;;;-0.75;100.00;99176.88;10530182;28;20044;-78
2024/01/15 20:37:43;;;;;;;4.40;2.03;;;;;;;-0.99;100.00;99170.25;10541862;28;20633;-78
2024/01/15 20:42:47;;;;;;;8.45;2.58;;;;;;;-0.81;100.00;99179.84;10519503;28;20063;-79
2024/01/15 20:47:50;;;;;;;9.77;2.83;;;;;;;-0.49;100.00;99174.63;10535741;28;21026;-80
2024/01/15 20:52:53;;;;;;;11.25;2.60;;;;;;;-0.79;100.00;99193.81;10534371;28;20063;-79
2024/01/15 20:57:57;;;;;;;5.75;1.80;;;;;;;-0.53;100.00;99210.00;10517695;28;20104;-80
2024/01/15 21:03:01;;;;;;;5.10;1.73;;;;;;;-0.53;100.00;99210.00;10531260;28;20059;-80
2024/01/15 21:08:04;;;;;;;4.45;1.60;;;;;;;-0.96;100.00;99223.69;10532367;28;20035;-80
2024/01/15 21:13:08;;;;;;;5.35;1.90;;;;;;;-0.30;100.00;99228.09;10542046;28;20291;-80
2024/01/15 21:18:11;;;;;;;7.43;1.52;;;;;;;-0.75;100.00;99232.25;10539105;28;20139;-79
2024/01/15 21:23:15;;;;;;;5.30;1.42;;;;;;;-0.42;100.00;99223.47;10523203;28;20986;-78
2024/01/15 21:28:19;;;;;;;2.67;1.35;;;;;;;-0.23;100.00;99217.19;10523621;28;21012;-78
2024/01/15 21:33:22;;;;;;;4.72;1.38;;;;;;;-0.36;100.00;99228.41;10527368;28;20057;-79
2024/01/15 21:38:25;;;;;;;6.80;1.40;;;;;;;-0.54;100.00;99254.00;10510568;28;20059;-78
2024/01/15 21:43:30;;;;;;;7.82;1.55;;;;;;;-0.30;100.00;99243.06;10517574;28;20083;-80
2024/01/15 21:48:33;;;;;;;5.72;1.60;;;;;;;-0.47;100.00;99243.97;10527867;28;20062;-78
2024/01/15 21:53:37;;;;;;;8.27;1.33;;;;;;;-0.63;100.00;99257.13;10539027;28;20047;-81
2024/01/15 21:58:42;;;;;;;4.28;1.35;;;;;;;-0.80;100.00;99273.81;10516265;28;20056;-81
2024/01/15 22:03:45;;;;;;;2.00;1.10;;;;;;;-0.29;100.00;99268.53;10520672;28;20048;-79
2024/01/15 22:08:50;;;;;;;4.38;1.30;;;;;;;-0.61;100.00;99273.72;10532628;28;20052;-80
2024/01/15 22:13:54;;;;;;;2.90;1.42;;;;;;;-0.38;100.00;99275.16;10528935;28;21073;-79
2024/01/15 22:18:57;;;;;;;3.63;1.35;;;;;;;-0.60;100.00;99287.78;10452049;28;20044;-81
2024/01/15 22:24:05;;;;;;;8.30;1.38;;;;;;;-0.57;100.00;99298.16;10451794;28;20080;-81
2024/01/15 22:29:09;;;;;;;3.45;1.20;;;;;;;-0.87;100.00;99301.44;10453240;28;20042;-79
2024/01/15 22:34:12;;;;;;;5.75;1.30;;;;;;;-0.46;100.00;99297.59;10458485;28;20060;-79
2024/01/15 22:39:15;;;;;;;4.13;1.15;;;;;;;-0.83;100.00;99312.69;10459685;28;20117;-81
2024/01/15 22:44:20;;;;;;;2.20;1.42;;;;;;;-0.24;100.00;99314.00;10460043;28;20056;-80
2024/01/15 22:49:23;;;;;;;5.05;1.30;;;;;;;-0.95;100.00;99333.47;10522331;28;20069;-81
2024/01/15 22:54:26;;;;;;;2.45;0.80;;;;;;;-0.95;100.00;99328.19;10586687;28;20039;-79
2024/01/15 22:59:30;;;;;;;3.85;2.40;;;;;;;-0.63;100.00;99319.56;10583372;28;20024;-80
2024/01/15 23:04:33;;;;;;;5.90;1.65;;;;;;;-0.93;100.00;99314.94;10580518;28;20024;-79
2024/01/15 23:09:36;;;;;;;6.65;1.55;;;;;;;-0.91;100.00;99328.88;10574970;28;20032;-79
2024/01/15 23:14:41;;;;;;;7.38;1.80;;;;;;;-0.81;100.00;99343.31;10572305;28;20055;-79